createdAt,value
2022-10-22T00:00:41.557Z,19.58
2022-10-22T00:03:08.741Z,16.50
2022-10-22T00:05:35.806Z,15.73
2022-10-22T00:08:03.910Z,17.80
2022-10-22T00:10:31.127Z,16.48
2022-10-22T00:12:58.152Z,18.90
2022-10-22T00:15:25.303Z,18.23
2022-10-22T00:17:52.453Z,15.52
2022-10-22T00:20:19.777Z,14.02
2022-10-22T00:22:46.903Z,15.82
2022-10-22T00:25:14.280Z,16.77
2022-10-22T00:27:41.635Z,15.68
2022-10-22T00:30:09.615Z,16.70
2022-10-22T00:32:36.834Z,18.73
2022-10-22T00:35:04.525Z,17.60
2022-10-22T00:37:31.812Z,17.23
2022-10-22T00:39:59.139Z,16.80
2022-10-22T00:42:27.860Z,18.60
2022-10-22T00:45:09.930Z,17.00
2022-10-22T00:47:59.554Z,13.07
2022-10-22T00:50:40.441Z,13.80
2022-10-22T00:53:15.156Z,15.38
2022-10-22T00:55:45.972Z,14.13
2022-10-22T00:58:13.913Z,13.68
2022-10-22T01:00:41.206Z,14.23
2022-10-22T01:03:09.128Z,14.70
2022-10-22T01:06:06.014Z,12.35
2022-10-22T01:08:38.806Z,14.00
2022-10-22T01:11:34.043Z,16.02
2022-10-22T01:14:25.174Z,13.02
2022-10-22T01:16:59.741Z,15.18
2022-10-22T01:19:41.636Z,15.20
2022-10-22T01:22:21.944Z,12.65
2022-10-22T01:25:17.062Z,14.27
2022-10-22T01:27:53.691Z,15.50
2022-10-22T01:30:21.047Z,14.32
2022-10-22T01:32:55.641Z,15.27
2022-10-22T01:35:28.284Z,13.30
2022-10-22T01:38:00.390Z,15.43
2022-10-22T01:40:29.198Z,15.00
2022-10-22T01:43:08.652Z,14.32
2022-10-22T01:45:43.734Z,13.55
2022-10-22T01:48:47.634Z,12.55
2022-10-22T01:54:07.094Z,14.43
2022-10-22T01:56:54.145Z,12.13
2022-10-22T01:59:24.020Z,11.50
2022-10-22T02:02:08.270Z,16.17
2022-10-22T02:04:43.703Z,12.18
2022-10-22T02:07:14.330Z,13.75
2022-10-22T02:09:43.565Z,11.55
2022-10-22T02:12:11.675Z,11.15
2022-10-22T02:14:42.683Z,10.90
2022-10-22T02:17:16.030Z,11.50
2022-10-22T02:19:46.952Z,12.75
2022-10-22T02:22:14.456Z,12.65
2022-10-22T02:24:41.870Z,15.18
2022-10-22T02:27:54.746Z,12.57
2022-10-22T02:30:23.261Z,12.77
2022-10-22T02:33:08.821Z,11.23
2022-10-22T02:35:37.726Z,12.07
2022-10-22T02:38:05.501Z,12.30
2022-10-22T02:40:33.186Z,13.38
2022-10-22T02:43:00.582Z,14.57
2022-10-22T02:45:27.839Z,11.05
2022-10-22T02:47:55.019Z,12.05
2022-10-22T02:50:22.284Z,11.80
2022-10-22T02:52:49.373Z,11.65
2022-10-22T02:55:16.674Z,10.68
2022-10-22T02:57:43.874Z,12.50
2022-10-22T03:00:12.426Z,11.40
2022-10-22T03:02:39.546Z,10.93
2022-10-22T03:05:07.124Z,12.88
2022-10-22T03:07:34.737Z,11.85
2022-10-22T03:10:02.153Z,12.68
2022-10-22T03:12:29.231Z,12.43
2022-10-22T03:14:56.424Z,14.35
2022-10-22T03:17:23.656Z,10.18
2022-10-22T03:19:50.847Z,11.38
2022-10-22T03:22:27.675Z,12.02
2022-10-22T03:24:59.093Z,11.30
2022-10-22T03:27:28.553Z,13.10
2022-10-22T03:29:57.342Z,12.93
2022-10-22T03:32:24.399Z,12.60
2022-10-22T03:34:51.630Z,9.88
2022-10-22T03:37:19.085Z,11.52
2022-10-22T03:39:46.790Z,10.30
2022-10-22T03:42:14.041Z,10.82
2022-10-22T03:44:41.634Z,12.45
2022-10-22T03:47:08.773Z,12.55
2022-10-22T03:49:36.194Z,10.75
2022-10-22T03:52:09.321Z,12.23
2022-10-22T03:57:05.673Z,13.38
2022-10-22T03:59:41.777Z,10.63
2022-10-22T04:02:10.397Z,13.63
2022-10-22T04:04:38.348Z,10.68
2022-10-22T04:07:06.701Z,11.75
2022-10-22T04:09:34.816Z,12.40
2022-10-22T04:12:02.485Z,13.27
2022-10-22T04:14:29.633Z,13.02
2022-10-22T04:16:56.695Z,13.10
2022-10-22T04:19:24.059Z,11.43
2022-10-22T04:21:51.085Z,12.43
2022-10-22T04:24:18.263Z,11.35
2022-10-22T04:26:45.299Z,13.50
2022-10-22T04:29:15.963Z,12.13
2022-10-22T04:31:43.682Z,12.23
2022-10-22T04:34:10.807Z,17.38
2022-10-22T04:36:37.973Z,12.63
2022-10-22T04:39:06.466Z,18.30
2022-10-22T04:41:36.270Z,15.98
2022-10-22T04:44:04.380Z,11.50
2022-10-22T04:46:33.926Z,14.50
2022-10-22T04:49:03.995Z,11.90
2022-10-22T04:51:31.817Z,11.57
2022-10-22T04:53:59.055Z,14.50
2022-10-22T04:56:29.199Z,15.82
2022-10-22T04:59:01.400Z,13.60
2022-10-22T05:01:31.202Z,11.57
2022-10-22T05:04:02.317Z,15.60
2022-10-22T05:06:31.071Z,13.27
2022-10-22T05:09:00.296Z,12.65
2022-10-22T05:11:30.186Z,15.55
2022-10-22T05:13:59.625Z,16.88
2022-10-22T05:16:29.126Z,15.57
2022-10-22T05:18:56.501Z,12.02
2022-10-22T05:21:23.728Z,14.30
2022-10-22T05:23:51.644Z,13.25
2022-10-22T05:26:21.072Z,14.98
2022-10-22T05:28:49.710Z,14.38
2022-10-22T05:31:18.298Z,16.52
2022-10-22T05:33:46.902Z,18.00
2022-10-22T05:36:17.057Z,16.63
2022-10-22T05:38:44.294Z,12.95
2022-10-22T05:41:17.281Z,13.52
2022-10-22T05:46:15.710Z,19.40
2022-10-22T05:48:50.463Z,19.77
2022-10-22T05:51:18.081Z,18.63
2022-10-22T05:53:46.177Z,24.77
2022-10-22T05:56:16.055Z,14.88
2022-10-22T05:58:45.048Z,13.68
2022-10-22T06:01:24.120Z,13.35
2022-10-22T06:03:54.814Z,14.20
2022-10-22T06:06:31.450Z,14.55
2022-10-22T06:09:03.647Z,15.75
2022-10-22T06:11:34.269Z,16.40
2022-10-22T06:14:03.078Z,15.65
2022-10-22T06:16:31.625Z,13.60
2022-10-22T06:19:02.621Z,14.13
2022-10-22T06:21:30.942Z,12.13
2022-10-22T06:23:59.946Z,15.38
2022-10-22T06:26:27.144Z,13.93
2022-10-22T06:28:56.385Z,15.27
2022-10-22T06:31:24.652Z,12.75
2022-10-22T06:33:52.244Z,11.73
2022-10-22T06:36:21.893Z,12.68
2022-10-22T06:38:52.751Z,16.52
2022-10-22T06:41:22.180Z,14.13
2022-10-22T06:43:54.074Z,13.57
2022-10-22T06:46:22.644Z,17.92
2022-10-22T06:48:56.355Z,18.02
2022-10-22T06:51:23.809Z,16.17
2022-10-22T06:53:50.995Z,17.70
2022-10-22T06:56:20.856Z,12.88
2022-10-22T06:58:49.397Z,17.35
2022-10-22T07:01:18.262Z,17.45
2022-10-22T07:03:45.748Z,13.15
2022-10-22T07:06:14.894Z,15.98
2022-10-22T07:08:43.063Z,14.90
2022-10-22T07:11:11.889Z,15.40
2022-10-22T07:13:38.962Z,17.17
2022-10-22T07:16:07.703Z,15.95
2022-10-22T07:18:36.043Z,16.13
2022-10-22T07:21:03.252Z,17.67
2022-10-22T07:23:31.002Z,17.92
2022-10-22T07:25:59.404Z,15.75
2022-10-22T07:28:26.481Z,19.38
2022-10-22T07:30:53.848Z,17.38
2022-10-22T07:33:21.214Z,15.18
2022-10-22T07:35:48.586Z,15.25
2022-10-22T07:38:15.645Z,12.05
2022-10-22T07:40:42.849Z,13.95
2022-10-22T07:43:09.922Z,13.18
2022-10-22T07:45:37.068Z,15.35
2022-10-22T07:48:04.316Z,11.60
2022-10-22T07:50:31.501Z,11.15
2022-10-22T07:52:58.846Z,11.82
2022-10-22T07:55:26.440Z,13.57
2022-10-22T07:57:53.612Z,11.98
2022-10-22T08:00:23.204Z,12.80
2022-10-22T08:02:52.721Z,15.70
2022-10-22T08:05:19.993Z,10.80
2022-10-22T08:07:47.038Z,13.68
2022-10-22T08:10:14.474Z,11.73
2022-10-22T08:12:42.183Z,14.68
2022-10-22T08:15:10.334Z,15.45
2022-10-22T08:17:37.434Z,14.77
2022-10-22T08:20:05.593Z,13.77
2022-10-22T08:22:32.763Z,10.85
2022-10-22T08:25:00.673Z,12.52
2022-10-22T08:27:27.860Z,16.85
2022-10-22T08:29:55.057Z,11.77
2022-10-22T08:32:22.416Z,12.48
2022-10-22T08:34:49.715Z,14.77
2022-10-22T08:37:18.012Z,12.10
2022-10-22T08:39:45.863Z,10.90
2022-10-22T08:42:43.699Z,11.63
2022-10-22T08:45:20.033Z,12.98
2022-10-22T08:47:59.652Z,14.48
2022-10-22T08:50:41.097Z,10.20
2022-10-22T08:53:41.598Z,11.00
2022-10-22T08:56:09.519Z,11.55
2022-10-22T08:58:46.302Z,20.40
2022-10-22T09:01:32.670Z,18.20
2022-10-22T09:04:14.030Z,10.90
2022-10-22T09:06:44.573Z,13.80
2022-10-22T09:09:18.264Z,14.90
2022-10-22T09:11:48.895Z,14.57
2022-10-22T09:14:18.959Z,11.60
2022-10-22T09:17:11.043Z,11.70
2022-10-22T09:19:57.247Z,10.00
2022-10-22T09:22:42.505Z,10.38
2022-10-22T09:25:21.882Z,8.43
2022-10-22T09:27:50.531Z,10.68
2022-10-22T09:30:21.572Z,7.82
2022-10-22T09:32:55.329Z,8.45
2022-10-22T09:35:25.040Z,8.38
2022-10-22T09:37:57.214Z,9.50
2022-10-22T09:40:24.518Z,9.70
2022-10-22T09:42:51.751Z,8.57
2022-10-22T09:45:25.907Z,7.43
2022-10-22T09:48:12.372Z,11.00
2022-10-22T09:50:46.059Z,7.25
2022-10-22T09:53:37.395Z,13.55
2022-10-22T09:56:15.727Z,7.90
2022-10-22T09:58:44.998Z,7.82
2022-10-22T10:01:36.099Z,7.72
2022-10-22T10:04:09.586Z,6.30
2022-10-22T10:06:42.175Z,7.93
2022-10-22T10:09:17.255Z,7.33
2022-10-22T10:12:09.168Z,6.78
2022-10-22T10:15:03.289Z,10.55
2022-10-22T10:17:36.115Z,5.55
2022-10-22T10:20:16.577Z,10.13
2022-10-22T10:22:58.222Z,11.82
2022-10-22T10:25:42.502Z,7.90
2022-10-22T10:28:18.326Z,8.43
2022-10-22T10:31:07.310Z,6.85
2022-10-22T10:33:41.655Z,6.63
2022-10-22T10:36:34.291Z,8.48
2022-10-22T10:39:20.764Z,7.63
2022-10-22T10:42:09.531Z,7.78
2022-10-22T10:45:01.867Z,6.15
2022-10-22T10:47:42.303Z,7.60
2022-10-22T10:50:43.240Z,8.18
2022-10-22T10:53:29.699Z,11.40
2022-10-22T10:56:07.441Z,9.15
2022-10-22T10:58:42.521Z,6.25
2022-10-22T11:01:14.509Z,8.20
2022-10-22T11:03:58.396Z,5.75
2022-10-22T11:06:29.539Z,8.75
2022-10-22T11:09:08.407Z,9.50
2022-10-22T11:11:52.495Z,10.48
2022-10-22T11:14:46.144Z,6.45
2022-10-22T11:17:19.343Z,7.93
2022-10-22T11:20:03.437Z,10.38
2022-10-22T11:23:16.810Z,7.68
2022-10-22T11:25:49.800Z,6.65
2022-10-22T11:28:41.927Z,7.38
2022-10-22T11:31:17.724Z,7.22
2022-10-22T11:34:15.314Z,9.45
2022-10-22T11:36:50.056Z,13.77
2022-10-22T11:39:41.336Z,7.45
2022-10-22T11:42:36.785Z,7.72
2022-10-22T11:45:30.162Z,6.68
2022-10-22T11:48:10.635Z,6.70
2022-10-22T11:50:51.394Z,7.00
2022-10-22T11:53:39.399Z,8.15
2022-10-22T11:56:11.327Z,7.88
2022-10-22T11:58:50.850Z,7.63
2022-10-22T12:01:42.244Z,8.73
2022-10-22T12:04:18.563Z,8.70
2022-10-22T12:07:06.953Z,10.25
2022-10-22T12:09:41.208Z,6.25
2022-10-22T12:12:16.147Z,6.32
2022-10-22T12:14:59.563Z,8.05
2022-10-22T12:17:32.625Z,11.35
2022-10-22T12:20:08.334Z,9.70
2022-10-22T12:22:39.918Z,8.63
2022-10-22T12:25:20.368Z,8.60
2022-10-22T12:27:53.707Z,9.13
2022-10-22T12:30:26.397Z,9.32
2022-10-22T12:33:02.438Z,8.18
2022-10-22T12:35:36.079Z,9.48
2022-10-22T12:38:14.175Z,11.50
2022-10-22T12:40:47.497Z,8.65
2022-10-22T12:43:32.626Z,5.97
2022-10-22T12:46:03.132Z,6.63
2022-10-22T12:48:36.983Z,10.70
2022-10-22T12:51:08.664Z,10.98
2022-10-22T12:54:08.253Z,9.10
2022-10-22T12:56:38.125Z,7.43
2022-10-22T12:59:10.510Z,7.63
2022-10-22T13:01:42.928Z,6.43
2022-10-22T13:04:14.101Z,8.07
2022-10-22T13:07:05.736Z,7.18
2022-10-22T13:09:44.019Z,9.85
2022-10-22T13:12:17.270Z,9.75
2022-10-22T13:14:47.821Z,11.15
2022-10-22T13:17:21.471Z,11.65
2022-10-22T13:20:05.578Z,14.07
2022-10-22T13:22:53.623Z,12.52
2022-10-22T13:25:26.165Z,26.80
2022-10-22T13:28:20.825Z,41.65
2022-10-22T13:31:00.359Z,31.40
2022-10-22T13:33:30.912Z,27.40
2022-10-22T13:35:58.640Z,24.58
2022-10-22T13:38:28.034Z,16.95
2022-10-22T13:40:56.512Z,23.90
2022-10-22T13:43:25.315Z,14.75
2022-10-22T13:45:56.057Z,17.83
2022-10-22T13:48:25.789Z,18.02
2022-10-22T13:50:54.199Z,18.60
2022-10-22T13:53:24.250Z,21.30
2022-10-22T13:58:26.161Z,20.65
2022-10-22T14:00:57.286Z,26.52
2022-10-22T14:03:32.533Z,23.98
2022-10-22T14:06:00.266Z,15.45
2022-10-22T14:08:28.316Z,24.13
2022-10-22T14:10:55.477Z,28.77
2022-10-22T14:13:22.794Z,24.88
2022-10-22T14:15:51.781Z,16.27
2022-10-22T14:18:27.828Z,21.90
2022-10-22T14:20:58.491Z,21.30
2022-10-22T14:23:28.990Z,21.73
2022-10-22T14:25:57.116Z,29.63
2022-10-22T14:28:24.703Z,21.15
2022-10-22T14:30:52.895Z,24.45
2022-10-22T14:33:32.983Z,20.63
2022-10-22T14:36:01.007Z,19.05
2022-10-22T14:38:28.637Z,23.80
2022-10-22T14:40:56.925Z,20.80
2022-10-22T14:43:27.556Z,17.15
2022-10-22T14:45:55.463Z,18.10
2022-10-22T14:48:22.855Z,17.10
2022-10-22T14:50:51.115Z,19.85
2022-10-22T14:53:18.656Z,13.27
2022-10-22T14:55:47.863Z,16.92
2022-10-22T14:58:15.709Z,15.65
2022-10-22T15:00:46.274Z,14.27
2022-10-22T15:03:13.764Z,18.33
2022-10-22T15:05:45.604Z,18.58
2022-10-22T15:08:16.093Z,14.95
2022-10-22T15:10:44.109Z,18.15
2022-10-22T15:15:44.734Z,16.00
2022-10-22T15:18:12.737Z,17.73
2022-10-22T15:20:40.652Z,15.70
2022-10-22T15:23:08.207Z,12.65
2022-10-22T15:25:38.870Z,14.93
2022-10-22T15:28:09.817Z,16.40
2022-10-22T15:30:37.707Z,19.08
2022-10-22T15:33:07.522Z,18.73
2022-10-22T15:35:36.431Z,22.17
2022-10-22T15:38:06.936Z,15.93
2022-10-22T15:40:35.158Z,15.55
2022-10-22T15:43:04.814Z,15.70
2022-10-22T15:45:37.077Z,21.73
2022-10-22T15:48:07.270Z,19.45
2022-10-22T15:50:38.952Z,19.27
2022-10-22T15:53:06.700Z,20.75
2022-10-22T15:55:34.010Z,16.15
2022-10-22T15:58:03.565Z,18.85
2022-10-22T16:00:34.174Z,21.17
2022-10-22T16:03:06.775Z,25.30
2022-10-22T16:05:34.202Z,18.30
2022-10-22T16:08:07.598Z,19.13
2022-10-22T16:10:35.177Z,22.98
2022-10-22T16:13:02.729Z,17.75
2022-10-22T16:15:31.695Z,18.02
2022-10-22T16:17:59.682Z,17.95
2022-10-22T16:20:27.701Z,17.65
2022-10-22T16:22:55.126Z,18.75
2022-10-22T16:25:22.388Z,18.30
2022-10-22T16:27:51.130Z,17.52
2022-10-22T16:30:22.605Z,21.33
2022-10-22T16:32:54.531Z,21.40
2022-10-22T16:35:22.753Z,18.67
2022-10-22T16:37:58.018Z,25.50
2022-10-22T16:40:26.077Z,21.85
2022-10-22T16:42:53.481Z,22.92
2022-10-22T16:45:20.694Z,22.55
2022-10-22T16:47:49.355Z,19.50
2022-10-22T16:50:20.241Z,24.40
2022-10-22T16:52:47.991Z,22.17
2022-10-22T16:55:21.346Z,20.65
2022-10-22T16:57:52.915Z,21.52
2022-10-22T17:00:21.368Z,23.75
2022-10-22T17:02:54.060Z,25.48
2022-10-22T17:05:23.011Z,23.15
2022-10-22T17:07:51.170Z,19.67
2022-10-22T17:12:53.996Z,25.73
2022-10-22T17:15:23.872Z,30.23
2022-10-22T17:17:54.077Z,31.35
2022-10-22T17:20:22.233Z,32.72
2022-10-22T17:22:50.099Z,20.60
2022-10-22T17:25:24.095Z,17.23
2022-10-22T17:27:54.387Z,17.17
2022-10-22T17:30:29.114Z,19.92
2022-10-22T17:32:56.750Z,20.15
2022-10-22T17:37:59.506Z,19.05
2022-10-22T17:40:27.693Z,27.27
2022-10-22T17:42:56.580Z,25.60
2022-10-22T17:45:28.947Z,24.48
2022-10-22T17:48:01.187Z,19.38
2022-10-22T17:50:31.059Z,21.38
2022-10-22T17:53:04.268Z,20.75
2022-10-22T17:55:38.581Z,21.48
2022-10-22T17:58:14.407Z,23.60
2022-10-22T18:00:52.882Z,18.40
2022-10-22T18:03:30.074Z,19.73
2022-10-22T18:06:07.984Z,22.10
2022-10-22T18:08:35.209Z,20.45
2022-10-22T18:11:16.441Z,19.63
2022-10-22T18:13:43.639Z,18.95
2022-10-22T18:16:10.848Z,21.63
2022-10-22T18:18:38.096Z,17.85
2022-10-22T18:21:05.471Z,17.67
2022-10-22T18:23:33.658Z,25.98
2022-10-22T18:26:00.695Z,19.08
2022-10-22T18:28:27.941Z,22.42
2022-10-22T18:30:56.327Z,22.15
2022-10-22T18:33:24.493Z,22.63
2022-10-22T18:35:52.726Z,23.52
2022-10-22T18:38:23.117Z,27.45
2022-10-22T18:40:50.826Z,24.08
2022-10-22T18:43:18.800Z,20.67
2022-10-22T18:45:47.437Z,21.67
2022-10-22T18:48:17.665Z,27.92
2022-10-22T18:50:46.022Z,21.63
2022-10-22T18:53:15.861Z,21.10
2022-10-22T18:55:43.576Z,19.00
2022-10-22T18:58:11.106Z,20.92
2022-10-22T19:00:38.773Z,18.02
2022-10-22T19:03:06.202Z,18.20
2022-10-22T19:05:33.767Z,23.15
2022-10-22T19:08:01.369Z,22.02
2022-10-22T19:10:28.701Z,28.27
2022-10-22T19:12:55.803Z,22.50
2022-10-22T19:15:23.303Z,24.15
2022-10-22T19:17:50.746Z,22.92
2022-10-22T19:20:24.594Z,26.95
2022-10-22T19:22:53.630Z,22.13
2022-10-22T19:25:21.065Z,23.08
2022-10-22T19:27:49.242Z,22.77
2022-10-22T19:30:17.815Z,21.00
2022-10-22T19:32:45.627Z,24.27
2022-10-22T19:35:16.680Z,26.02
2022-10-22T19:37:48.267Z,24.50
2022-10-22T19:40:16.282Z,27.05
2022-10-22T19:42:47.306Z,24.08
2022-10-22T19:45:15.578Z,22.88
2022-10-22T19:47:42.985Z,24.10
2022-10-22T19:50:10.131Z,23.35
2022-10-22T19:52:37.463Z,23.80
2022-10-22T19:55:04.982Z,26.95
2022-10-22T19:57:32.227Z,22.70
2022-10-22T19:59:59.575Z,26.75
2022-10-22T20:02:26.862Z,24.70
2022-10-22T20:04:54.160Z,27.98
2022-10-22T20:07:21.505Z,27.63
2022-10-22T20:09:48.903Z,24.65
2022-10-22T20:12:23.617Z,25.33
2022-10-22T20:14:52.026Z,26.42
2022-10-22T20:17:20.808Z,25.75
2022-10-22T20:19:48.897Z,25.98
2022-10-22T20:22:19.739Z,25.80
2022-10-22T20:24:47.956Z,24.25
2022-10-22T20:27:16.554Z,24.80
2022-10-22T20:29:44.781Z,21.25
2022-10-22T20:32:13.140Z,22.05
2022-10-22T20:34:42.029Z,22.10
2022-10-22T20:37:13.026Z,25.10
2022-10-22T20:39:40.779Z,20.58
2022-10-22T20:42:08.745Z,19.38
2022-10-22T20:44:36.541Z,18.48
2022-10-22T20:47:06.536Z,24.15
2022-10-22T20:49:34.398Z,21.33
2022-10-22T20:52:02.411Z,19.27
2022-10-22T20:54:30.452Z,23.63
2022-10-22T20:56:59.171Z,20.80
2022-10-22T20:59:32.975Z,20.58
2022-10-22T21:02:03.909Z,21.33
2022-10-22T21:04:46.589Z,21.90
2022-10-22T21:07:14.204Z,20.88
2022-10-22T21:09:41.348Z,22.15
2022-10-22T21:12:08.747Z,17.65
2022-10-22T21:14:35.855Z,21.50
2022-10-22T21:17:03.114Z,20.52
2022-10-22T21:19:31.493Z,18.67
2022-10-22T21:21:59.018Z,23.15
2022-10-22T21:24:26.966Z,24.85
2022-10-22T21:26:54.638Z,17.25
2022-10-22T21:29:22.557Z,19.00
2022-10-22T21:31:52.728Z,20.17
2022-10-22T21:34:20.272Z,18.15
2022-10-22T21:37:10.548Z,17.55
2022-10-22T21:39:45.276Z,23.67
2022-10-22T21:42:15.596Z,19.00
2022-10-22T21:44:42.669Z,18.83
2022-10-22T21:47:09.823Z,19.75
2022-10-22T21:49:36.858Z,23.30
2022-10-22T21:52:07.047Z,25.13
2022-10-22T21:54:37.629Z,23.80
2022-10-22T21:57:05.223Z,19.35
2022-10-22T21:59:32.556Z,20.38
2022-10-22T22:02:04.780Z,22.52
2022-10-22T22:04:33.250Z,18.75
2022-10-22T22:07:00.520Z,20.38
2022-10-22T22:09:27.596Z,18.42
2022-10-22T22:11:54.762Z,18.05
2022-10-22T22:14:21.983Z,19.08
2022-10-22T22:16:49.082Z,20.20
2022-10-22T22:19:16.251Z,19.73
2022-10-22T22:21:43.373Z,17.00
2022-10-22T22:24:12.997Z,20.05
2022-10-22T22:26:40.493Z,19.60
2022-10-22T22:29:07.552Z,17.33
2022-10-22T22:31:35.534Z,21.02
2022-10-22T22:34:05.501Z,18.17
2022-10-22T22:36:37.629Z,18.35
2022-10-22T22:39:06.963Z,19.20
2022-10-22T22:41:34.550Z,16.33
2022-10-22T22:44:02.252Z,17.98
2022-10-22T22:46:29.573Z,15.85
2022-10-22T22:48:56.730Z,17.15
2022-10-22T22:51:24.310Z,16.20
2022-10-22T22:53:51.930Z,15.95
2022-10-22T22:56:22.449Z,18.75
2022-10-22T22:58:49.981Z,15.15
2022-10-22T23:01:30.113Z,16.55
2022-10-22T23:04:02.553Z,14.48
2022-10-22T23:06:33.190Z,18.13
2022-10-22T23:09:00.670Z,15.88
2022-10-22T23:11:28.581Z,13.68
2022-10-22T23:13:58.123Z,16.08
2022-10-22T23:16:27.652Z,14.55
2022-10-22T23:18:56.053Z,16.15
2022-10-22T23:21:27.109Z,13.85
2022-10-22T23:23:57.644Z,17.05
2022-10-22T23:26:30.569Z,13.77
2022-10-22T23:29:28.164Z,15.27
2022-10-22T23:31:55.982Z,18.75
2022-10-22T23:34:25.447Z,15.63
2022-10-22T23:36:53.378Z,14.85
2022-10-22T23:39:23.276Z,16.73
2022-10-22T23:41:50.975Z,18.63
2022-10-22T23:44:18.059Z,16.55
2022-10-22T23:46:45.251Z,20.38
2022-10-22T23:49:12.497Z,15.63
2022-10-22T23:51:40.820Z,17.50
2022-10-22T23:54:11.333Z,17.73
2022-10-22T23:56:38.999Z,17.05
2022-10-22T23:59:07.112Z,16.52
